Aérodrome :
LOGIN :

S'inscrire | Disclaimer

   EN    FR    IT 

 










Légende :    VFR   VFR Marginal   IFR   IFR Intensif   IFR Très Intensif
Visi : 
Plafond : 
>= 8 km
>= 3000ft
5 à 8 km
1000 à 3000 ft
1500m à 5 km
500 à 1000 ft
800 à 1500m
200 à 500 ft
< 800m
< 200 ft
Symboles :   Orages  Brouillard  Fortes neiges  Fortes précipitations  Vent > 20 kt
SIGMETs :   Divers  Orages  Givrage  Turbulence  Onde Orograph.  Cendres Volcan.







- Altitude de l'aérodrome : 580 ft
- Voir les cartes d'approche


LFOA - Avord

DERNIER METAR :
  • 231430Z AUTO 25021KT 9999 BKN025/// BKN031/// OVC038/// 22/17 Q1017

METARs EXPIRÉS :
  • 231400Z AUTO 25023G34KT 9999 BKN027/// OVC033/// 23/16 Q1017
  • 231330Z AUTO 24022KT 9999 BKN025/// BKN031/// BKN045/// 24/17 Q1017
  • 231300Z AUTO 24020KT 9999 SCT022/// BKN027/// OVC047/// 23/17 Q1017
  • 231230Z AUTO 25023KT 9999 BKN021/// OVC028/// 23/17 Q1018
  • 231200Z AUTO 25020KT 9999 OVC022/// 23/16 Q1018

Prévision TAF périmée.
Pas de NOTAMs connus pour ce terrain.
2 SIGMETs publiés pour la FIR Paris (LFFF) :
 
Turbulence forte
LFFF SIGMET 2 VALID 231200/231600 LFPW
LFFF PARIS FIR/UIR SEV TURB FCST WI N5030 E00345 - N4930 E00600 - N4900 E00500 - N4945 E00300 - N5030 E00345 SFC/FL050 STNR NC=
Turbulence forte
LFFF SIGMET 1 VALID 231100/231500 LFPW
LFFF PARIS FIR/UIR SEV TURB FCST WI N4945 W00015 - N5000 W00015 - N5030 E00030 - N4945 W00015 FL350/430 STNR NC=



MET'MAP, la Météo Aéronautique d'un coup d'oeil ! - Copyright ORBIFLY Décembre 2007 - Disclaimer

ORBIFLY MET'MAP TEAM :

Programmation & Développement : Alexandra Zaïnal
Conception & Développement : Baudouin d'Aumeries
Co-Programmation & Développement : Marc-Olivier Méhu
Soutien technique & logistique : Manuel Goepfert

Contact : metmap@orbifly.com




SOURCES & CREDITS :

   NOAA